sensor_id;sensor_type;location;lat;lon;timestamp;temperature;humidity
30244;DHT22;64022;53.652;9.792;2023-04-09T00:00:38;20.90;64.50
30244;DHT22;64022;53.652;9.792;2023-04-09T00:03:03;20.90;64.50
30244;DHT22;64022;53.652;9.792;2023-04-09T00:05:29;20.90;64.40
30244;DHT22;64022;53.652;9.792;2023-04-09T00:07:55;20.90;64.90
30244;DHT22;64022;53.652;9.792;2023-04-09T00:10:20;20.90;64.40
30244;DHT22;64022;53.652;9.792;2023-04-09T00:12:46;20.90;64.40
30244;DHT22;64022;53.652;9.792;2023-04-09T00:15:11;20.90;64.40
30244;DHT22;64022;53.652;9.792;2023-04-09T00:17:37;20.90;64.40
30244;DHT22;64022;53.652;9.792;2023-04-09T00:20:03;20.90;64.40
30244;DHT22;64022;53.652;9.792;2023-04-09T00:22:29;20.90;64.40
30244;DHT22;64022;53.652;9.792;2023-04-09T00:24:54;20.90;64.30
30244;DHT22;64022;53.652;9.792;2023-04-09T00:27:20;20.90;64.30
30244;DHT22;64022;53.652;9.792;2023-04-09T00:29:45;20.90;64.30
30244;DHT22;64022;53.652;9.792;2023-04-09T00:32:12;20.90;64.20
30244;DHT22;64022;53.652;9.792;2023-04-09T00:34:37;20.90;64.20
30244;DHT22;64022;53.652;9.792;2023-04-09T00:37:03;20.90;64.20
30244;DHT22;64022;53.652;9.792;2023-04-09T00:39:29;20.90;64.20
30244;DHT22;64022;53.652;9.792;2023-04-09T00:41:59;20.90;64.10
30244;DHT22;64022;53.652;9.792;2023-04-09T00:44:26;20.90;64.60
30244;DHT22;64022;53.652;9.792;2023-04-09T00:46:53;20.90;64.10
30244;DHT22;64022;53.652;9.792;2023-04-09T00:49:18;20.90;64.10
30244;DHT22;64022;53.652;9.792;2023-04-09T00:51:45;21.00;64.20
30244;DHT22;64022;53.652;9.792;2023-04-09T00:54:11;20.90;64.10
30244;DHT22;64022;53.652;9.792;2023-04-09T00:56:37;20.90;64.10
30244;DHT22;64022;53.652;9.792;2023-04-09T00:59:03;21.00;64.20
30244;DHT22;64022;53.652;9.792;2023-04-09T01:01:29;20.90;64.10
30244;DHT22;64022;53.652;9.792;2023-04-09T01:03:55;21.00;64.20
30244;DHT22;64022;53.652;9.792;2023-04-09T01:06:52;21.00;64.20
30244;DHT22;64022;53.652;9.792;2023-04-09T01:14:36;20.90;64.10
30244;DHT22;64022;53.652;9.792;2023-04-09T01:17:14;20.90;64.10
30244;DHT22;64022;53.652;9.792;2023-04-09T01:20:10;20.90;64.10
30244;DHT22;64022;53.652;9.792;2023-04-09T01:29:01;20.90;64.00
30244;DHT22;64022;53.652;9.792;2023-04-09T01:31:48;20.90;64.10
30244;DHT22;64022;53.652;9.792;2023-04-09T01:33:56;20.90;64.10
30244;DHT22;64022;53.652;9.792;2023-04-09T01:36:23;20.90;64.10
30244;DHT22;64022;53.652;9.792;2023-04-09T01:38:51;20.90;64.10
30244;DHT22;64022;53.652;9.792;2023-04-09T01:41:19;20.90;64.10
30244;DHT22;64022;53.652;9.792;2023-04-09T01:43:47;20.90;64.10
30244;DHT22;64022;53.652;9.792;2023-04-09T01:46:14;20.90;64.10
30244;DHT22;64022;53.652;9.792;2023-04-09T01:48:41;20.90;64.00
30244;DHT22;64022;53.652;9.792;2023-04-09T01:51:06;20.90;64.00
30244;DHT22;64022;53.652;9.792;2023-04-09T01:53:32;20.90;63.90
30244;DHT22;64022;53.652;9.792;2023-04-09T01:56:01;20.90;64.00
30244;DHT22;64022;53.652;9.792;2023-04-09T01:58:27;20.90;63.90
30244;DHT22;64022;53.652;9.792;2023-04-09T02:01:15;20.90;63.90
30244;DHT22;64022;53.652;9.792;2023-04-09T02:03:59;20.90;63.90
30244;DHT22;64022;53.652;9.792;2023-04-09T02:06:39;20.90;63.80
30244;DHT22;64022;53.652;9.792;2023-04-09T02:09:07;20.90;63.90
30244;DHT22;64022;53.652;9.792;2023-04-09T02:11:36;20.90;63.90
30244;DHT22;64022;53.652;9.792;2023-04-09T02:14:03;20.90;63.90
30244;DHT22;64022;53.652;9.792;2023-04-09T02:16:31;20.90;63.90
30244;DHT22;64022;53.652;9.792;2023-04-09T02:18:57;20.90;63.90
30244;DHT22;64022;53.652;9.792;2023-04-09T02:21:26;20.90;63.90
30244;DHT22;64022;53.652;9.792;2023-04-09T02:23:53;20.90;63.80
30244;DHT22;64022;53.652;9.792;2023-04-09T02:26:20;20.90;63.80
30244;DHT22;64022;53.652;9.792;2023-04-09T02:28:45;20.90;63.80
30244;DHT22;64022;53.652;9.792;2023-04-09T02:31:11;20.90;63.80
30244;DHT22;64022;53.652;9.792;2023-04-09T02:33:36;20.90;63.70
30244;DHT22;64022;53.652;9.792;2023-04-09T02:36:02;20.90;63.70
30244;DHT22;64022;53.652;9.792;2023-04-09T02:38:27;20.90;63.70
30244;DHT22;64022;53.652;9.792;2023-04-09T02:40:53;20.90;63.70
30244;DHT22;64022;53.652;9.792;2023-04-09T02:43:18;20.90;63.60
30244;DHT22;64022;53.652;9.792;2023-04-09T02:45:44;20.90;63.60
30244;DHT22;64022;53.652;9.792;2023-04-09T02:48:09;20.90;63.70
30244;DHT22;64022;53.652;9.792;2023-04-09T02:50:35;20.90;63.70
30244;DHT22;64022;53.652;9.792;2023-04-09T02:53:01;20.90;63.70
30244;DHT22;64022;53.652;9.792;2023-04-09T02:55:26;20.90;63.70
30244;DHT22;64022;53.652;9.792;2023-04-09T02:57:52;20.90;63.60
30244;DHT22;64022;53.652;9.792;2023-04-09T03:00:17;20.90;63.70
30244;DHT22;64022;53.652;9.792;2023-04-09T03:02:43;20.90;63.60
30244;DHT22;64022;53.652;9.792;2023-04-09T03:05:08;20.90;64.20
30244;DHT22;64022;53.652;9.792;2023-04-09T03:07:34;20.90;63.70
30244;DHT22;64022;53.652;9.792;2023-04-09T03:09:59;20.90;63.70
30244;DHT22;64022;53.652;9.792;2023-04-09T03:12:25;20.90;63.60
30244;DHT22;64022;53.652;9.792;2023-04-09T03:14:51;20.90;63.70
30244;DHT22;64022;53.652;9.792;2023-04-09T03:17:16;20.90;63.70
30244;DHT22;64022;53.652;9.792;2023-04-09T03:19:42;20.90;63.60
30244;DHT22;64022;53.652;9.792;2023-04-09T03:22:07;20.90;63.60
30244;DHT22;64022;53.652;9.792;2023-04-09T03:24:33;20.90;63.60
30244;DHT22;64022;53.652;9.792;2023-04-09T03:26:59;20.90;63.60
30244;DHT22;64022;53.652;9.792;2023-04-09T03:29:24;20.90;63.60
30244;DHT22;64022;53.652;9.792;2023-04-09T03:31:50;20.90;63.60
30244;DHT22;64022;53.652;9.792;2023-04-09T03:34:15;20.90;63.60
30244;DHT22;64022;53.652;9.792;2023-04-09T03:36:41;20.90;63.60
30244;DHT22;64022;53.652;9.792;2023-04-09T03:39:06;20.90;63.60
30244;DHT22;64022;53.652;9.792;2023-04-09T03:41:32;20.90;63.60
30244;DHT22;64022;53.652;9.792;2023-04-09T03:43:57;20.90;63.60
30244;DHT22;64022;53.652;9.792;2023-04-09T03:46:23;20.90;63.50
30244;DHT22;64022;53.652;9.792;2023-04-09T03:48:49;20.90;63.60
30244;DHT22;64022;53.652;9.792;2023-04-09T03:51:16;20.90;63.50
30244;DHT22;64022;53.652;9.792;2023-04-09T03:53:42;20.90;63.50
30244;DHT22;64022;53.652;9.792;2023-04-09T03:56:08;20.90;63.50
30244;DHT22;64022;53.652;9.792;2023-04-09T03:58:34;20.90;63.50
30244;DHT22;64022;53.652;9.792;2023-04-09T04:01:00;20.90;63.40
30244;DHT22;64022;53.652;9.792;2023-04-09T04:03:26;20.90;63.50
30244;DHT22;64022;53.652;9.792;2023-04-09T04:05:52;20.90;63.50
30244;DHT22;64022;53.652;9.792;2023-04-09T04:08:18;20.90;63.40
30244;DHT22;64022;53.652;9.792;2023-04-09T04:10:43;20.90;63.40
30244;DHT22;64022;53.652;9.792;2023-04-09T04:13:09;20.90;63.40
30244;DHT22;64022;53.652;9.792;2023-04-09T04:15:40;20.90;63.40
30244;DHT22;64022;53.652;9.792;2023-04-09T04:18:07;20.90;63.40
30244;DHT22;64022;53.652;9.792;2023-04-09T04:20:33;20.90;63.40
30244;DHT22;64022;53.652;9.792;2023-04-09T04:22:59;20.90;63.40
30244;DHT22;64022;53.652;9.792;2023-04-09T04:25:25;20.90;63.40
30244;DHT22;64022;53.652;9.792;2023-04-09T04:27:50;20.90;63.40
30244;DHT22;64022;53.652;9.792;2023-04-09T04:30:16;20.90;63.30
30244;DHT22;64022;53.652;9.792;2023-04-09T04:32:41;20.90;63.30
30244;DHT22;64022;53.652;9.792;2023-04-09T04:35:07;20.90;63.30
30244;DHT22;64022;53.652;9.792;2023-04-09T04:37:33;20.90;63.30
30244;DHT22;64022;53.652;9.792;2023-04-09T04:40:00;20.90;63.20
30244;DHT22;64022;53.652;9.792;2023-04-09T04:42:26;20.90;63.20
30244;DHT22;64022;53.652;9.792;2023-04-09T04:44:52;20.90;63.20
30244;DHT22;64022;53.652;9.792;2023-04-09T04:47:17;20.90;63.20
30244;DHT22;64022;53.652;9.792;2023-04-09T04:49:43;20.90;63.20
30244;DHT22;64022;53.652;9.792;2023-04-09T04:52:09;20.90;63.20
30244;DHT22;64022;53.652;9.792;2023-04-09T04:54:35;20.90;63.20
30244;DHT22;64022;53.652;9.792;2023-04-09T04:57:01;20.90;63.20
30244;DHT22;64022;53.652;9.792;2023-04-09T04:59:26;20.90;63.10
30244;DHT22;64022;53.652;9.792;2023-04-09T05:01:52;20.90;63.10
30244;DHT22;64022;53.652;9.792;2023-04-09T05:04:17;20.90;63.10
30244;DHT22;64022;53.652;9.792;2023-04-09T05:06:43;20.90;63.10
30244;DHT22;64022;53.652;9.792;2023-04-09T05:09:08;20.90;63.10
30244;DHT22;64022;53.652;9.792;2023-04-09T05:11:34;20.90;63.10
30244;DHT22;64022;53.652;9.792;2023-04-09T05:14:00;20.90;63.10
30244;DHT22;64022;53.652;9.792;2023-04-09T05:16:25;20.90;63.10
30244;DHT22;64022;53.652;9.792;2023-04-09T05:18:51;20.90;63.20
30244;DHT22;64022;53.652;9.792;2023-04-09T05:21:16;20.90;63.20
30244;DHT22;64022;53.652;9.792;2023-04-09T05:23:42;20.90;63.10
30244;DHT22;64022;53.652;9.792;2023-04-09T05:26:07;20.90;63.10
30244;DHT22;64022;53.652;9.792;2023-04-09T05:28:33;20.90;61.70
30244;DHT22;64022;53.652;9.792;2023-04-09T05:30:59;20.80;59.10
30244;DHT22;64022;53.652;9.792;2023-04-09T05:33:24;20.60;59.70
30244;DHT22;64022;53.652;9.792;2023-04-09T05:35:50;20.50;60.40
30244;DHT22;64022;53.652;9.792;2023-04-09T05:38:16;20.50;60.80
30244;DHT22;64022;53.652;9.792;2023-04-09T05:40:41;20.50;61.10
30244;DHT22;64022;53.652;9.792;2023-04-09T05:43:08;20.50;61.30
30244;DHT22;64022;53.652;9.792;2023-04-09T05:45:34;20.60;61.40
30244;DHT22;64022;53.652;9.792;2023-04-09T05:48:00;20.60;61.50
30244;DHT22;64022;53.652;9.792;2023-04-09T05:50:26;20.60;61.50
30244;DHT22;64022;53.652;9.792;2023-04-09T05:52:51;20.60;61.60
30244;DHT22;64022;53.652;9.792;2023-04-09T05:55:17;20.70;61.70
30244;DHT22;64022;53.652;9.792;2023-04-09T05:57:42;20.70;61.70
30244;DHT22;64022;53.652;9.792;2023-04-09T06:00:09;20.70;61.70
30244;DHT22;64022;53.652;9.792;2023-04-09T06:02:35;20.60;61.40
30244;DHT22;64022;53.652;9.792;2023-04-09T06:05:01;20.60;61.80
30244;DHT22;64022;53.652;9.792;2023-04-09T06:07:26;20.70;61.80
30244;DHT22;64022;53.652;9.792;2023-04-09T06:09:53;20.70;61.80
30244;DHT22;64022;53.652;9.792;2023-04-09T06:12:19;20.70;61.70
30244;DHT22;64022;53.652;9.792;2023-04-09T06:14:47;20.70;61.70
30244;DHT22;64022;53.652;9.792;2023-04-09T06:17:13;20.70;61.70
30244;DHT22;64022;53.652;9.792;2023-04-09T06:19:39;20.70;61.70
30244;DHT22;64022;53.652;9.792;2023-04-09T06:22:04;20.70;61.60
30244;DHT22;64022;53.652;9.792;2023-04-09T06:24:31;20.80;61.70
30244;DHT22;64022;53.652;9.792;2023-04-09T06:26:57;20.70;61.60
30244;DHT22;64022;53.652;9.792;2023-04-09T06:29:23;20.80;61.70
30244;DHT22;64022;53.652;9.792;2023-04-09T06:31:48;20.70;61.60
30244;DHT22;64022;53.652;9.792;2023-04-09T06:34:14;20.80;61.60
30244;DHT22;64022;53.652;9.792;2023-04-09T06:36:40;20.80;61.60
30244;DHT22;64022;53.652;9.792;2023-04-09T06:39:05;20.80;61.50
30244;DHT22;64022;53.652;9.792;2023-04-09T06:41:31;20.80;61.60
30244;DHT22;64022;53.652;9.792;2023-04-09T06:43:58;20.80;61.50
30244;DHT22;64022;53.652;9.792;2023-04-09T06:46:23;20.80;61.50
30244;DHT22;64022;53.652;9.792;2023-04-09T06:48:49;20.80;61.50
30244;DHT22;64022;53.652;9.792;2023-04-09T06:51:15;20.80;61.50
30244;DHT22;64022;53.652;9.792;2023-04-09T06:53:41;20.80;61.50
30244;DHT22;64022;53.652;9.792;2023-04-09T06:56:08;20.80;61.60
30244;DHT22;64022;53.652;9.792;2023-04-09T06:58:33;20.80;61.60
30244;DHT22;64022;53.652;9.792;2023-04-09T07:00:59;20.80;61.60
30244;DHT22;64022;53.652;9.792;2023-04-09T07:03:25;20.90;61.60
30244;DHT22;64022;53.652;9.792;2023-04-09T07:05:52;20.80;61.50
30244;DHT22;64022;53.652;9.792;2023-04-09T07:08:18;20.80;61.30
30244;DHT22;64022;53.652;9.792;2023-04-09T07:10:43;20.80;61.80
30244;DHT22;64022;53.652;9.792;2023-04-09T07:13:11;20.80;61.80
30244;DHT22;64022;53.652;9.792;2023-04-09T07:15:37;20.80;61.90
30244;DHT22;64022;53.652;9.792;2023-04-09T07:18:02;20.90;62.10
30244;DHT22;64022;53.652;9.792;2023-04-09T07:20:28;20.90;62.20
30244;DHT22;64022;53.652;9.792;2023-04-09T07:22:54;20.90;62.80
30244;DHT22;64022;53.652;9.792;2023-04-09T07:25:20;20.90;62.30
30244;DHT22;64022;53.652;9.792;2023-04-09T07:27:45;20.90;62.40
30244;DHT22;64022;53.652;9.792;2023-04-09T07:30:11;20.90;62.40
30244;DHT22;64022;53.652;9.792;2023-04-09T07:32:37;20.90;62.50
30244;DHT22;64022;53.652;9.792;2023-04-09T07:35:05;21.00;62.50
30244;DHT22;64022;53.652;9.792;2023-04-09T07:37:31;21.00;62.60
30244;DHT22;64022;53.652;9.792;2023-04-09T07:39:56;21.00;62.60
30244;DHT22;64022;53.652;9.792;2023-04-09T07:42:22;21.00;62.60
30244;DHT22;64022;53.652;9.792;2023-04-09T07:44:48;21.00;62.60
30244;DHT22;64022;53.652;9.792;2023-04-09T07:47:14;21.00;62.70
30244;DHT22;64022;53.652;9.792;2023-04-09T07:49:40;21.00;62.70
30244;DHT22;64022;53.652;9.792;2023-04-09T07:52:05;21.00;62.80
30244;DHT22;64022;53.652;9.792;2023-04-09T07:54:32;21.00;62.80
30244;DHT22;64022;53.652;9.792;2023-04-09T07:56:58;21.00;62.80
30244;DHT22;64022;53.652;9.792;2023-04-09T07:59:24;21.10;62.90
30244;DHT22;64022;53.652;9.792;2023-04-09T08:01:50;21.10;62.90
30244;DHT22;64022;53.652;9.792;2023-04-09T08:04:16;21.10;63.00
30244;DHT22;64022;53.652;9.792;2023-04-09T08:06:42;21.10;63.00
30244;DHT22;64022;53.652;9.792;2023-04-09T08:09:10;21.10;63.00
30244;DHT22;64022;53.652;9.792;2023-04-09T08:11:36;21.10;63.10
30244;DHT22;64022;53.652;9.792;2023-04-09T08:14:02;21.10;63.10
30244;DHT22;64022;53.652;9.792;2023-04-09T08:16:28;21.10;63.10
30244;DHT22;64022;53.652;9.792;2023-04-09T08:18:55;21.00;62.60
30244;DHT22;64022;53.652;9.792;2023-04-09T08:21:21;21.00;63.10
30244;DHT22;64022;53.652;9.792;2023-04-09T08:23:46;21.10;63.20
30244;DHT22;64022;53.652;9.792;2023-04-09T08:26:12;21.10;63.20
30244;DHT22;64022;53.652;9.792;2023-04-09T08:28:37;21.10;63.20
30244;DHT22;64022;53.652;9.792;2023-04-09T08:31:03;21.10;63.20
30244;DHT22;64022;53.652;9.792;2023-04-09T08:33:28;21.10;63.20
30244;DHT22;64022;53.652;9.792;2023-04-09T08:35:55;21.10;63.20
30244;DHT22;64022;53.652;9.792;2023-04-09T08:38:21;21.10;63.20
30244;DHT22;64022;53.652;9.792;2023-04-09T08:40:46;21.10;63.20
30244;DHT22;64022;53.652;9.792;2023-04-09T08:43:14;21.10;63.30
30244;DHT22;64022;53.652;9.792;2023-04-09T08:45:41;21.10;63.30
30244;DHT22;64022;53.652;9.792;2023-04-09T08:48:09;21.10;63.30
30244;DHT22;64022;53.652;9.792;2023-04-09T08:50:35;21.10;63.30
30244;DHT22;64022;53.652;9.792;2023-04-09T08:53:05;21.10;63.40
30244;DHT22;64022;53.652;9.792;2023-04-09T08:55:31;21.10;63.40
30244;DHT22;64022;53.652;9.792;2023-04-09T08:58:06;21.10;63.40
30244;DHT22;64022;53.652;9.792;2023-04-09T09:00:31;21.10;63.40
30244;DHT22;64022;53.652;9.792;2023-04-09T09:03:08;21.10;63.40
30244;DHT22;64022;53.652;9.792;2023-04-09T09:05:44;21.10;63.40
30244;DHT22;64022;53.652;9.792;2023-04-09T09:08:12;21.10;63.40
30244;DHT22;64022;53.652;9.792;2023-04-09T09:10:40;21.10;63.50
30244;DHT22;64022;53.652;9.792;2023-04-09T09:13:22;21.10;63.60
30244;DHT22;64022;53.652;9.792;2023-04-09T09:15:49;21.10;63.50
30244;DHT22;64022;53.652;9.792;2023-04-09T09:18:20;21.10;63.60
30244;DHT22;64022;53.652;9.792;2023-04-09T09:20:46;21.10;63.70
30244;DHT22;64022;53.652;9.792;2023-04-09T09:23:11;21.10;63.70
30244;DHT22;64022;53.652;9.792;2023-04-09T09:25:41;21.20;63.70
30244;DHT22;64022;53.652;9.792;2023-04-09T09:28:11;21.20;63.80
30244;DHT22;64022;53.652;9.792;2023-04-09T09:30:38;21.20;63.80
30244;DHT22;64022;53.652;9.792;2023-04-09T09:33:06;21.20;63.80
30244;DHT22;64022;53.652;9.792;2023-04-09T09:35:52;21.20;63.80
30244;DHT22;64022;53.652;9.792;2023-04-09T09:38:19;21.20;63.70
30244;DHT22;64022;53.652;9.792;2023-04-09T09:40:45;21.20;63.90
30244;DHT22;64022;53.652;9.792;2023-04-09T09:43:12;21.20;63.90
30244;DHT22;64022;53.652;9.792;2023-04-09T09:45:39;21.20;64.00
30244;DHT22;64022;53.652;9.792;2023-04-09T09:48:05;21.20;64.00
30244;DHT22;64022;53.652;9.792;2023-04-09T09:50:33;21.20;64.00
30244;DHT22;64022;53.652;9.792;2023-04-09T09:53:06;21.20;64.00
30244;DHT22;64022;53.652;9.792;2023-04-09T09:55:33;21.20;64.00
30244;DHT22;64022;53.652;9.792;2023-04-09T09:58:05;21.30;64.10
30244;DHT22;64022;53.652;9.792;2023-04-09T10:00:32;21.30;64.10
30244;DHT22;64022;53.652;9.792;2023-04-09T10:03:13;21.30;64.10
30244;DHT22;64022;53.652;9.792;2023-04-09T10:05:39;21.30;64.00
30244;DHT22;64022;53.652;9.792;2023-04-09T10:08:05;21.30;64.10
30244;DHT22;64022;53.652;9.792;2023-04-09T10:10:32;21.30;64.20
30244;DHT22;64022;53.652;9.792;2023-04-09T10:12:58;21.30;64.20
30244;DHT22;64022;53.652;9.792;2023-04-09T10:15:26;21.30;64.20
30244;DHT22;64022;53.652;9.792;2023-04-09T10:17:53;21.30;64.30
30244;DHT22;64022;53.652;9.792;2023-04-09T10:20:28;21.30;64.40
30244;DHT22;64022;53.652;9.792;2023-04-09T10:22:56;21.30;64.40
30244;DHT22;64022;53.652;9.792;2023-04-09T10:25:23;21.30;64.50
30244;DHT22;64022;53.652;9.792;2023-04-09T10:27:59;21.40;64.50
30244;DHT22;64022;53.652;9.792;2023-04-09T10:30:35;21.30;64.40
30244;DHT22;64022;53.652;9.792;2023-04-09T10:33:14;21.30;64.40
30244;DHT22;64022;53.652;9.792;2023-04-09T10:35:40;21.30;64.50
30244;DHT22;64022;53.652;9.792;2023-04-09T10:38:07;21.30;64.50
30244;DHT22;64022;53.652;9.792;2023-04-09T10:40:34;21.30;64.60
30244;DHT22;64022;53.652;9.792;2023-04-09T10:43:00;21.30;64.60
30244;DHT22;64022;53.652;9.792;2023-04-09T10:45:38;21.30;64.60
30244;DHT22;64022;53.652;9.792;2023-04-09T10:48:05;21.30;64.50
30244;DHT22;64022;53.652;9.792;2023-04-09T10:50:31;21.30;65.10
30244;DHT22;64022;53.652;9.792;2023-04-09T10:52:57;21.30;64.50
30244;DHT22;64022;53.652;9.792;2023-04-09T10:55:36;21.30;64.50
30244;DHT22;64022;53.652;9.792;2023-04-09T10:58:06;21.40;64.50
30244;DHT22;64022;53.652;9.792;2023-04-09T11:00:38;21.40;64.60
30244;DHT22;64022;53.652;9.792;2023-04-09T11:03:28;21.40;64.60
30244;DHT22;64022;53.652;9.792;2023-04-09T11:06:00;21.30;64.40
30244;DHT22;64022;53.652;9.792;2023-04-09T11:08:30;21.30;64.50
30244;DHT22;64022;53.652;9.792;2023-04-09T11:10:56;21.30;64.50
30244;DHT22;64022;53.652;9.792;2023-04-09T11:13:23;21.30;64.50
30244;DHT22;64022;53.652;9.792;2023-04-09T11:15:50;21.30;64.50
30244;DHT22;64022;53.652;9.792;2023-04-09T11:18:20;21.30;64.50
30244;DHT22;64022;53.652;9.792;2023-04-09T11:20:47;21.30;64.50
30244;DHT22;64022;53.652;9.792;2023-04-09T11:23:12;21.30;64.50
30244;DHT22;64022;53.652;9.792;2023-04-09T11:25:38;21.30;64.50
30244;DHT22;64022;53.652;9.792;2023-04-09T11:28:05;21.30;64.50
30244;DHT22;64022;53.652;9.792;2023-04-09T11:30:32;21.30;64.50
30244;DHT22;64022;53.652;9.792;2023-04-09T11:32:59;21.30;64.50
30244;DHT22;64022;53.652;9.792;2023-04-09T11:35:24;21.30;64.40
30244;DHT22;64022;53.652;9.792;2023-04-09T11:37:50;21.40;64.50
30244;DHT22;64022;53.652;9.792;2023-04-09T11:40:18;21.30;64.40
30244;DHT22;64022;53.652;9.792;2023-04-09T11:42:45;21.30;64.40
30244;DHT22;64022;53.652;9.792;2023-04-09T11:45:11;21.30;64.30
30244;DHT22;64022;53.652;9.792;2023-04-09T11:47:39;21.30;64.20
30244;DHT22;64022;53.652;9.792;2023-04-09T11:50:07;21.30;64.20
30244;DHT22;64022;53.652;9.792;2023-04-09T11:52:33;21.30;64.10
30244;DHT22;64022;53.652;9.792;2023-04-09T11:55:00;21.30;64.00
30244;DHT22;64022;53.652;9.792;2023-04-09T11:57:42;21.30;63.90
30244;DHT22;64022;53.652;9.792;2023-04-09T12:00:15;21.30;64.00
30244;DHT22;64022;53.652;9.792;2023-04-09T12:02:45;21.30;64.00
30244;DHT22;64022;53.652;9.792;2023-04-09T12:05:19;21.30;63.90
30244;DHT22;64022;53.652;9.792;2023-04-09T12:07:45;21.30;63.90
30244;DHT22;64022;53.652;9.792;2023-04-09T12:10:11;21.30;63.80
30244;DHT22;64022;53.652;9.792;2023-04-09T12:12:44;21.30;64.20
30244;DHT22;64022;53.652;9.792;2023-04-09T12:15:23;21.30;63.70
30244;DHT22;64022;53.652;9.792;2023-04-09T12:17:52;21.30;63.60
30244;DHT22;64022;53.652;9.792;2023-04-09T12:20:32;21.30;63.50
30244;DHT22;64022;53.652;9.792;2023-04-09T12:22:59;21.30;63.50
30244;DHT22;64022;53.652;9.792;2023-04-09T12:25:26;21.30;62.00
30244;DHT22;64022;53.652;9.792;2023-04-09T12:27:54;21.20;60.10
30244;DHT22;64022;53.652;9.792;2023-04-09T12:30:20;21.10;59.00
30244;DHT22;64022;53.652;9.792;2023-04-09T12:32:46;20.90;58.00
30244;DHT22;64022;53.652;9.792;2023-04-09T12:35:12;20.70;56.70
30244;DHT22;64022;53.652;9.792;2023-04-09T12:37:38;20.60;57.40
30244;DHT22;64022;53.652;9.792;2023-04-09T12:40:04;20.40;57.40
30244;DHT22;64022;53.652;9.792;2023-04-09T12:42:30;20.30;56.20
30244;DHT22;64022;53.652;9.792;2023-04-09T12:44:56;20.30;55.80
30244;DHT22;64022;53.652;9.792;2023-04-09T12:47:21;20.20;55.20
30244;DHT22;64022;53.652;9.792;2023-04-09T12:49:47;20.10;55.70
30244;DHT22;64022;53.652;9.792;2023-04-09T12:52:14;20.10;54.50
30244;DHT22;64022;53.652;9.792;2023-04-09T12:54:40;20.00;54.10
30244;DHT22;64022;53.652;9.792;2023-04-09T12:57:07;20.00;54.10
30244;DHT22;64022;53.652;9.792;2023-04-09T12:59:32;19.90;53.40
30244;DHT22;64022;53.652;9.792;2023-04-09T13:01:58;19.80;53.00
30244;DHT22;64022;53.652;9.792;2023-04-09T13:04:23;19.80;53.00
30244;DHT22;64022;53.652;9.792;2023-04-09T13:06:49;19.70;52.60
30244;DHT22;64022;53.652;9.792;2023-04-09T13:09:15;19.70;52.50
30244;DHT22;64022;53.652;9.792;2023-04-09T13:11:41;19.60;52.40
30244;DHT22;64022;53.652;9.792;2023-04-09T13:14:06;19.60;52.50
30244;DHT22;64022;53.652;9.792;2023-04-09T13:16:32;19.60;52.20
30244;DHT22;64022;53.652;9.792;2023-04-09T13:18:58;19.60;52.30
30244;DHT22;64022;53.652;9.792;2023-04-09T13:21:24;19.50;51.40
30244;DHT22;64022;53.652;9.792;2023-04-09T13:23:50;19.50;50.80
30244;DHT22;64022;53.652;9.792;2023-04-09T13:26:16;19.40;50.50
30244;DHT22;64022;53.652;9.792;2023-04-09T13:28:41;19.30;50.10
30244;DHT22;64022;53.652;9.792;2023-04-09T13:31:07;19.20;50.30
30244;DHT22;64022;53.652;9.792;2023-04-09T13:33:32;19.20;50.90
30244;DHT22;64022;53.652;9.792;2023-04-09T13:35:58;19.20;51.40
30244;DHT22;64022;53.652;9.792;2023-04-09T13:38:24;19.30;51.80
30244;DHT22;64022;53.652;9.792;2023-04-09T13:40:49;19.40;52.20
30244;DHT22;64022;53.652;9.792;2023-04-09T13:43:15;19.40;52.30
30244;DHT22;64022;53.652;9.792;2023-04-09T13:45:40;19.50;52.60
30244;DHT22;64022;53.652;9.792;2023-04-09T13:48:06;19.50;52.80
30244;DHT22;64022;53.652;9.792;2023-04-09T13:50:32;19.60;51.70
30244;DHT22;64022;53.652;9.792;2023-04-09T13:52:57;19.60;51.30
30244;DHT22;64022;53.652;9.792;2023-04-09T13:55:23;19.60;51.10
30244;DHT22;64022;53.652;9.792;2023-04-09T13:57:48;19.50;51.40
30244;DHT22;64022;53.652;9.792;2023-04-09T14:00:14;19.50;51.10
30244;DHT22;64022;53.652;9.792;2023-04-09T14:02:40;19.50;51.20
30244;DHT22;64022;53.652;9.792;2023-04-09T14:05:06;19.50;51.10
30244;DHT22;64022;53.652;9.792;2023-04-09T14:07:32;19.40;50.90
30244;DHT22;64022;53.652;9.792;2023-04-09T14:09:57;19.40;50.60
30244;DHT22;64022;53.652;9.792;2023-04-09T14:12:23;19.40;50.60
30244;DHT22;64022;53.652;9.792;2023-04-09T14:14:49;19.40;50.70
30244;DHT22;64022;53.652;9.792;2023-04-09T14:17:14;19.30;50.40
30244;DHT22;64022;53.652;9.792;2023-04-09T14:19:40;19.30;50.60
30244;DHT22;64022;53.652;9.792;2023-04-09T14:22:05;19.30;49.70
30244;DHT22;64022;53.652;9.792;2023-04-09T14:24:35;19.20;49.60
30244;DHT22;64022;53.652;9.792;2023-04-09T14:27:07;19.20;49.80
30244;DHT22;64022;53.652;9.792;2023-04-09T14:29:34;19.10;49.60
30244;DHT22;64022;53.652;9.792;2023-04-09T14:31:59;19.10;49.80
30244;DHT22;64022;53.652;9.792;2023-04-09T14:34:26;19.10;49.80
30244;DHT22;64022;53.652;9.792;2023-04-09T14:36:51;19.10;50.00
30244;DHT22;64022;53.652;9.792;2023-04-09T14:39:17;19.10;49.80
30244;DHT22;64022;53.652;9.792;2023-04-09T14:41:43;19.10;49.70
30244;DHT22;64022;53.652;9.792;2023-04-09T14:44:09;19.10;49.70
30244;DHT22;64022;53.652;9.792;2023-04-09T14:46:35;19.10;49.60
30244;DHT22;64022;53.652;9.792;2023-04-09T14:49:01;19.10;50.20
30244;DHT22;64022;53.652;9.792;2023-04-09T14:51:27;19.00;49.50
30244;DHT22;64022;53.652;9.792;2023-04-09T14:53:54;19.00;49.70
30244;DHT22;64022;53.652;9.792;2023-04-09T14:56:21;19.00;49.60
30244;DHT22;64022;53.652;9.792;2023-04-09T14:58:46;19.00;49.80
30244;DHT22;64022;53.652;9.792;2023-04-09T15:01:12;19.10;49.80
30244;DHT22;64022;53.652;9.792;2023-04-09T15:03:37;19.10;49.50
30244;DHT22;64022;53.652;9.792;2023-04-09T15:06:03;19.00;49.50
30244;DHT22;64022;53.652;9.792;2023-04-09T15:08:28;19.00;49.30
30244;DHT22;64022;53.652;9.792;2023-04-09T15:10:54;19.00;49.30
30244;DHT22;64022;53.652;9.792;2023-04-09T15:13:19;19.00;49.40
30244;DHT22;64022;53.652;9.792;2023-04-09T15:15:45;19.00;49.30
30244;DHT22;64022;53.652;9.792;2023-04-09T15:18:10;19.00;49.30
30244;DHT22;64022;53.652;9.792;2023-04-09T15:20:37;19.00;49.10
30244;DHT22;64022;53.652;9.792;2023-04-09T15:23:03;19.00;49.40
30244;DHT22;64022;53.652;9.792;2023-04-09T15:25:29;19.00;49.30
30244;DHT22;64022;53.652;9.792;2023-04-09T15:27:54;19.00;49.10
30244;DHT22;64022;53.652;9.792;2023-04-09T15:30:20;19.00;49.00
30244;DHT22;64022;53.652;9.792;2023-04-09T15:32:45;19.00;48.80
30244;DHT22;64022;53.652;9.792;2023-04-09T15:35:13;18.90;48.70
30244;DHT22;64022;53.652;9.792;2023-04-09T15:37:43;18.90;48.80
30244;DHT22;64022;53.652;9.792;2023-04-09T15:40:09;19.00;49.10